Startpagina
METAR-TAF:

METAR-TAF

Vliegvelden :

Nörvenich, Duitsland

breedte: 50-50N, lengte: 006-40E, hoogte: 118 m

Actueel weer

Dit bericht is 1 uur en het 9 minuten geleden gemaakt, om 09:20 UTC
Wind 5 kt uit het zuidoosten
Temperatuur 15°C
Vochtigheid 67%
Druk 1021 hPa
Zicht 10 km of meer
Weinig wolken op 2500 ft
Verspreide wolken op 25000 ft

METAR: ETNN 210920Z 14005KT 9999 FEW025 SCT250 15/09 Q1021 BLU+BLU+

Tijdstip: 12:29 (10:29 UTC)

Verwachting

Dit bericht is 3 uur en het 29 minuten geleden gemaakt, om 07:00 UTC
Verwachting geldig van 21 om 07 UTC tot 21 om 17 UTC
Wind 5 kt uit het zuidzuidoosten
Zicht 10 km of meer
Verspreide wolken op 3000 ft
Verspreide wolken op 24000 ft

TAF: ETNN 210700Z 2107/2117 15005KT 9999 NSW SCT030 SCT240 BY ETGL

Waarnemingen en weersverwachtingen van meer dan 4000 vliegvelden (METAR en TAF).

De beschikbare stations zijn de gele en rode punten op de kaart.

Ga met uw muis naar het station om de naam te zien.

Klik dan om waarnemingen en weersverwachtingen te zien.

kaart wijzigen: klik op de groene knoppen met een zwart kruis om in te zoomen, op de groene knop met een streepje om uit te zoomen of op de groene pijlen voor aangrenzende kaarten.


METAR-TAF: